Sodus, Michigan
Current Conditions -  °F | °C
As of 2:53 PM on Tuesday 21 Oct 2014 (Local Time) from KBEH Reporting Station
Overcast Overcast  
Wind Chill: 46°   Ceiling: 2500
Heat Index: 49°   Visibility: 10mi
Dew Point: 40°   Wind: 7mph
Humidity: 71%   Direction: 10°N
Pressure: 30.14"   Gusts: NA
Location:  42.04°N, 86.37°W
Report Text: KBEH 211853Z AUTO 01006KT 10SM OVC025 09/04 A3014 RMK AO2 SLP210 T00940044
Loading
Personal Weather Stations






























Interactive Weather Map
Tropical Storm Tracking
New forecast layout! Learn more

10-Day Weather Forecast

Advertisements
Track Severe Weather on mobile